sensor_id;sensor_type;location;lat;lon;timestamp;temperature;humidity
63313;DHT22;49442;45.640;13.812;2023-05-07T00:00:37;16.60;97.50
63313;DHT22;49442;45.640;13.812;2023-05-07T00:03:03;16.50;98.10
63313;DHT22;49442;45.640;13.812;2023-05-07T00:05:29;16.30;97.90
63313;DHT22;49442;45.640;13.812;2023-05-07T00:07:55;16.40;97.50
63313;DHT22;49442;45.640;13.812;2023-05-07T00:10:20;16.30;98.30
63313;DHT22;49442;45.640;13.812;2023-05-07T00:12:46;16.30;98.40
63313;DHT22;49442;45.640;13.812;2023-05-07T00:15:12;16.20;98.60
63313;DHT22;49442;45.640;13.812;2023-05-07T00:17:38;16.10;98.60
63313;DHT22;49442;45.640;13.812;2023-05-07T00:20:04;16.10;99.00
63313;DHT22;49442;45.640;13.812;2023-05-07T00:22:31;16.00;99.10
63313;DHT22;49442;45.640;13.812;2023-05-07T00:24:58;16.00;98.50
63313;DHT22;49442;45.640;13.812;2023-05-07T00:27:24;16.10;99.00
63313;DHT22;49442;45.640;13.812;2023-05-07T00:29:50;16.00;99.00
63313;DHT22;49442;45.640;13.812;2023-05-07T00:32:16;16.10;98.90
63313;DHT22;49442;45.640;13.812;2023-05-07T00:34:43;16.00;99.40
63313;DHT22;49442;45.640;13.812;2023-05-07T00:37:08;16.00;99.00
63313;DHT22;49442;45.640;13.812;2023-05-07T00:39:35;16.00;98.50
63313;DHT22;49442;45.640;13.812;2023-05-07T00:42:01;16.10;98.50
63313;DHT22;49442;45.640;13.812;2023-05-07T00:44:28;16.20;97.90
63313;DHT22;49442;45.640;13.812;2023-05-07T00:46:58;16.20;98.10
63313;DHT22;49442;45.640;13.812;2023-05-07T00:49:37;16.20;97.60
63313;DHT22;49442;45.640;13.812;2023-05-07T00:52:05;16.30;97.50
63313;DHT22;49442;45.640;13.812;2023-05-07T00:54:32;16.30;97.70
63313;DHT22;49442;45.640;13.812;2023-05-07T00:56:57;16.30;98.10
63313;DHT22;49442;45.640;13.812;2023-05-07T00:59:23;16.30;98.10
63313;DHT22;49442;45.640;13.812;2023-05-07T01:01:49;16.30;98.00
63313;DHT22;49442;45.640;13.812;2023-05-07T01:04:15;16.30;97.90
63313;DHT22;49442;45.640;13.812;2023-05-07T01:06:40;16.30;97.90
63313;DHT22;49442;45.640;13.812;2023-05-07T01:09:07;16.20;97.70
63313;DHT22;49442;45.640;13.812;2023-05-07T01:11:34;16.20;97.90
63313;DHT22;49442;45.640;13.812;2023-05-07T01:14:00;16.30;98.10
63313;DHT22;49442;45.640;13.812;2023-05-07T01:16:26;16.30;98.00
63313;DHT22;49442;45.640;13.812;2023-05-07T01:18:52;16.30;98.00
63313;DHT22;49442;45.640;13.812;2023-05-07T01:21:18;16.30;97.90
63313;DHT22;49442;45.640;13.812;2023-05-07T01:23:48;16.20;97.80
63313;DHT22;49442;45.640;13.812;2023-05-07T01:26:14;16.20;97.60
63313;DHT22;49442;45.640;13.812;2023-05-07T01:28:39;16.20;97.60
63313;DHT22;49442;45.640;13.812;2023-05-07T01:31:05;16.20;97.70
63313;DHT22;49442;45.640;13.812;2023-05-07T01:33:34;16.20;97.80
63313;DHT22;49442;45.640;13.812;2023-05-07T01:36:00;16.20;97.60
63313;DHT22;49442;45.640;13.812;2023-05-07T01:38:29;16.20;97.70
63313;DHT22;49442;45.640;13.812;2023-05-07T01:40:55;16.20;97.80
63313;DHT22;49442;45.640;13.812;2023-05-07T01:43:21;16.20;97.60
63313;DHT22;49442;45.640;13.812;2023-05-07T01:45:48;16.20;97.60
63313;DHT22;49442;45.640;13.812;2023-05-07T01:48:15;16.30;97.70
63313;DHT22;49442;45.640;13.812;2023-05-07T01:50:42;16.30;97.50
63313;DHT22;49442;45.640;13.812;2023-05-07T01:53:08;16.20;97.50
63313;DHT22;49442;45.640;13.812;2023-05-07T01:55:34;16.30;97.40
63313;DHT22;49442;45.640;13.812;2023-05-07T01:58:02;16.30;97.40
63313;DHT22;49442;45.640;13.812;2023-05-07T02:00:28;16.30;97.50
63313;DHT22;49442;45.640;13.812;2023-05-07T02:02:54;16.30;97.60
63313;DHT22;49442;45.640;13.812;2023-05-07T02:05:20;16.30;97.30
63313;DHT22;49442;45.640;13.812;2023-05-07T02:07:46;16.40;97.50
63313;DHT22;49442;45.640;13.812;2023-05-07T02:10:12;16.40;97.30
63313;DHT22;49442;45.640;13.812;2023-05-07T02:12:37;16.40;97.70
63313;DHT22;49442;45.640;13.812;2023-05-07T02:15:03;16.40;97.60
63313;DHT22;49442;45.640;13.812;2023-05-07T02:17:29;16.50;97.30
63313;DHT22;49442;45.640;13.812;2023-05-07T02:19:57;16.50;97.30
63313;DHT22;49442;45.640;13.812;2023-05-07T02:22:23;16.50;97.30
63313;DHT22;49442;45.640;13.812;2023-05-07T02:24:48;16.60;97.40
63313;DHT22;49442;45.640;13.812;2023-05-07T02:27:14;16.50;97.40
63313;DHT22;49442;45.640;13.812;2023-05-07T02:29:40;16.50;97.50
63313;DHT22;49442;45.640;13.812;2023-05-07T02:32:06;16.50;97.40
63313;DHT22;49442;45.640;13.812;2023-05-07T02:34:31;16.50;97.60
63313;DHT22;49442;45.640;13.812;2023-05-07T02:36:57;16.50;97.40
63313;DHT22;49442;45.640;13.812;2023-05-07T02:39:23;16.60;97.30
63313;DHT22;49442;45.640;13.812;2023-05-07T02:41:48;16.60;97.10
63313;DHT22;49442;45.640;13.812;2023-05-07T02:44:14;16.60;97.30
63313;DHT22;49442;45.640;13.812;2023-05-07T02:46:40;16.50;97.70
63313;DHT22;49442;45.640;13.812;2023-05-07T02:49:06;16.50;97.50
63313;DHT22;49442;45.640;13.812;2023-05-07T02:51:31;16.40;97.50
63313;DHT22;49442;45.640;13.812;2023-05-07T02:53:57;16.40;97.70
63313;DHT22;49442;45.640;13.812;2023-05-07T02:56:26;16.40;97.70
63313;DHT22;49442;45.640;13.812;2023-05-07T02:58:52;16.40;97.70
63313;DHT22;49442;45.640;13.812;2023-05-07T03:01:18;16.40;97.80
63313;DHT22;49442;45.640;13.812;2023-05-07T03:03:44;16.30;97.80
63313;DHT22;49442;45.640;13.812;2023-05-07T03:06:09;16.40;97.70
63313;DHT22;49442;45.640;13.812;2023-05-07T03:08:35;16.30;97.70
63313;DHT22;49442;45.640;13.812;2023-05-07T03:11:02;16.30;97.80
63313;DHT22;49442;45.640;13.812;2023-05-07T03:13:28;16.30;98.30
63313;DHT22;49442;45.640;13.812;2023-05-07T03:15:53;16.30;98.20
63313;DHT22;49442;45.640;13.812;2023-05-07T03:18:19;16.30;98.90
63313;DHT22;49442;45.640;13.812;2023-05-07T03:20:45;16.20;98.40
63313;DHT22;49442;45.640;13.812;2023-05-07T03:23:11;16.10;98.30
63313;DHT22;49442;45.640;13.812;2023-05-07T03:25:37;16.10;98.30
63313;DHT22;49442;45.640;13.812;2023-05-07T03:28:02;16.10;98.60
63313;DHT22;49442;45.640;13.812;2023-05-07T03:30:28;16.10;98.70
63313;DHT22;49442;45.640;13.812;2023-05-07T03:32:54;16.10;98.60
63313;DHT22;49442;45.640;13.812;2023-05-07T03:35:20;16.10;98.70
63313;DHT22;49442;45.640;13.812;2023-05-07T03:37:45;16.10;98.60
63313;DHT22;49442;45.640;13.812;2023-05-07T03:40:11;16.10;98.90
63313;DHT22;49442;45.640;13.812;2023-05-07T03:42:37;16.10;98.70
63313;DHT22;49442;45.640;13.812;2023-05-07T03:45:03;16.10;98.70
63313;DHT22;49442;45.640;13.812;2023-05-07T03:47:29;16.00;98.80
63313;DHT22;49442;45.640;13.812;2023-05-07T03:49:55;16.00;98.90
63313;DHT22;49442;45.640;13.812;2023-05-07T03:52:21;16.00;99.00
63313;DHT22;49442;45.640;13.812;2023-05-07T03:54:52;16.00;99.00
63313;DHT22;49442;45.640;13.812;2023-05-07T03:57:17;16.00;99.00
63313;DHT22;49442;45.640;13.812;2023-05-07T03:59:43;16.00;99.00
63313;DHT22;49442;45.640;13.812;2023-05-07T04:02:09;16.00;99.00
63313;DHT22;49442;45.640;13.812;2023-05-07T04:04:34;16.00;98.90
63313;DHT22;49442;45.640;13.812;2023-05-07T04:07:00;16.10;99.00
63313;DHT22;49442;45.640;13.812;2023-05-07T04:09:26;16.10;99.10
63313;DHT22;49442;45.640;13.812;2023-05-07T04:11:52;16.10;99.10
63313;DHT22;49442;45.640;13.812;2023-05-07T04:14:17;16.10;99.20
63313;DHT22;49442;45.640;13.812;2023-05-07T04:16:43;16.10;99.40
63313;DHT22;49442;45.640;13.812;2023-05-07T04:19:09;16.10;99.10
63313;DHT22;49442;45.640;13.812;2023-05-07T04:21:34;16.10;99.20
63313;DHT22;49442;45.640;13.812;2023-05-07T04:24:02;16.10;99.30
63313;DHT22;49442;45.640;13.812;2023-05-07T04:26:28;16.10;99.30
63313;DHT22;49442;45.640;13.812;2023-05-07T04:28:54;16.10;99.40
63313;DHT22;49442;45.640;13.812;2023-05-07T04:31:20;16.10;99.50
63313;DHT22;49442;45.640;13.812;2023-05-07T04:33:46;16.10;99.50
63313;DHT22;49442;45.640;13.812;2023-05-07T04:36:12;16.10;99.50
63313;DHT22;49442;45.640;13.812;2023-05-07T04:38:37;16.10;99.70
63313;DHT22;49442;45.640;13.812;2023-05-07T04:41:05;16.10;99.70
63313;DHT22;49442;45.640;13.812;2023-05-07T04:43:31;16.20;99.90
63313;DHT22;49442;45.640;13.812;2023-05-07T04:45:57;16.20;99.90
63313;DHT22;49442;45.640;13.812;2023-05-07T04:48:22;16.10;99.90
63313;DHT22;49442;45.640;13.812;2023-05-07T04:50:49;16.20;99.90
63313;DHT22;49442;45.640;13.812;2023-05-07T04:53:15;16.20;99.90
63313;DHT22;49442;45.640;13.812;2023-05-07T04:55:41;16.20;99.90
63313;DHT22;49442;45.640;13.812;2023-05-07T04:58:07;16.20;99.80
63313;DHT22;49442;45.640;13.812;2023-05-07T05:00:33;16.30;99.80
63313;DHT22;49442;45.640;13.812;2023-05-07T05:02:59;16.40;99.90
63313;DHT22;49442;45.640;13.812;2023-05-07T05:05:24;16.40;99.90
63313;DHT22;49442;45.640;13.812;2023-05-07T05:07:50;16.50;99.80
63313;DHT22;49442;45.640;13.812;2023-05-07T05:10:17;16.50;99.80
63313;DHT22;49442;45.640;13.812;2023-05-07T05:12:43;16.60;99.90
63313;DHT22;49442;45.640;13.812;2023-05-07T05:15:12;16.60;99.90
63313;DHT22;49442;45.640;13.812;2023-05-07T05:17:38;16.60;99.90
63313;DHT22;49442;45.640;13.812;2023-05-07T05:20:05;16.70;99.90
63313;DHT22;49442;45.640;13.812;2023-05-07T05:22:31;16.70;99.90
63313;DHT22;49442;45.640;13.812;2023-05-07T05:24:57;16.70;99.90
63313;DHT22;49442;45.640;13.812;2023-05-07T05:27:23;16.70;99.90
63313;DHT22;49442;45.640;13.812;2023-05-07T05:29:49;16.80;99.90
63313;DHT22;49442;45.640;13.812;2023-05-07T05:32:14;16.80;99.90
63313;DHT22;49442;45.640;13.812;2023-05-07T05:34:40;16.90;99.90
63313;DHT22;49442;45.640;13.812;2023-05-07T05:37:06;16.90;99.90
63313;DHT22;49442;45.640;13.812;2023-05-07T05:39:32;16.90;99.90
63313;DHT22;49442;45.640;13.812;2023-05-07T05:41:57;16.90;99.90
63313;DHT22;49442;45.640;13.812;2023-05-07T05:44:23;16.90;99.90
63313;DHT22;49442;45.640;13.812;2023-05-07T05:46:49;16.90;99.90
63313;DHT22;49442;45.640;13.812;2023-05-07T05:49:15;17.00;99.90
63313;DHT22;49442;45.640;13.812;2023-05-07T05:51:41;17.10;99.90
63313;DHT22;49442;45.640;13.812;2023-05-07T05:54:06;17.10;99.90
63313;DHT22;49442;45.640;13.812;2023-05-07T05:56:32;17.20;99.90
63313;DHT22;49442;45.640;13.812;2023-05-07T05:58:58;17.30;99.90
63313;DHT22;49442;45.640;13.812;2023-05-07T06:01:24;17.50;99.90
63313;DHT22;49442;45.640;13.812;2023-05-07T06:03:50;17.50;99.90
63313;DHT22;49442;45.640;13.812;2023-05-07T06:06:15;17.70;99.90
63313;DHT22;49442;45.640;13.812;2023-05-07T06:08:41;17.80;99.90
63313;DHT22;49442;45.640;13.812;2023-05-07T06:11:07;17.90;99.90
63313;DHT22;49442;45.640;13.812;2023-05-07T06:13:33;18.00;99.90
63313;DHT22;49442;45.640;13.812;2023-05-07T06:15:58;18.00;99.90
63313;DHT22;49442;45.640;13.812;2023-05-07T06:18:24;18.10;99.90
63313;DHT22;49442;45.640;13.812;2023-05-07T06:20:51;18.20;99.90
63313;DHT22;49442;45.640;13.812;2023-05-07T06:23:17;18.30;99.90
63313;DHT22;49442;45.640;13.812;2023-05-07T06:25:49;18.40;99.90
63313;DHT22;49442;45.640;13.812;2023-05-07T06:28:15;18.50;99.90
63313;DHT22;49442;45.640;13.812;2023-05-07T06:30:41;18.60;99.90
63313;DHT22;49442;45.640;13.812;2023-05-07T06:33:07;18.70;99.90
63313;DHT22;49442;45.640;13.812;2023-05-07T06:35:33;18.80;99.90
63313;DHT22;49442;45.640;13.812;2023-05-07T06:38:00;18.80;99.90
63313;DHT22;49442;45.640;13.812;2023-05-07T06:40:26;18.80;99.90
63313;DHT22;49442;45.640;13.812;2023-05-07T06:42:51;18.90;99.80
63313;DHT22;49442;45.640;13.812;2023-05-07T06:45:17;19.00;99.30
63313;DHT22;49442;45.640;13.812;2023-05-07T06:47:43;19.00;99.40
63313;DHT22;49442;45.640;13.812;2023-05-07T06:50:09;19.10;98.40
63313;DHT22;49442;45.640;13.812;2023-05-07T06:52:35;19.10;98.20
63313;DHT22;49442;45.640;13.812;2023-05-07T06:55:01;19.10;99.20
63313;DHT22;49442;45.640;13.812;2023-05-07T06:57:26;19.20;99.00
63313;DHT22;49442;45.640;13.812;2023-05-07T06:59:55;19.30;99.50
63313;DHT22;49442;45.640;13.812;2023-05-07T07:02:21;19.50;99.60
63313;DHT22;49442;45.640;13.812;2023-05-07T07:04:47;19.60;99.30
63313;DHT22;49442;45.640;13.812;2023-05-07T07:07:12;19.60;99.60
63313;DHT22;49442;45.640;13.812;2023-05-07T07:09:38;19.60;98.40
63313;DHT22;49442;45.640;13.812;2023-05-07T07:12:04;19.70;98.90
63313;DHT22;49442;45.640;13.812;2023-05-07T07:14:30;19.80;98.70
63313;DHT22;49442;45.640;13.812;2023-05-07T07:16:56;19.90;98.40
63313;DHT22;49442;45.640;13.812;2023-05-07T07:19:28;20.00;97.90
63313;DHT22;49442;45.640;13.812;2023-05-07T07:21:57;20.00;98.90
63313;DHT22;49442;45.640;13.812;2023-05-07T07:24:22;20.20;97.50
63313;DHT22;49442;45.640;13.812;2023-05-07T07:26:48;20.30;97.30
63313;DHT22;49442;45.640;13.812;2023-05-07T07:29:14;20.30;97.60
63313;DHT22;49442;45.640;13.812;2023-05-07T07:31:39;20.40;98.00
63313;DHT22;49442;45.640;13.812;2023-05-07T07:34:05;20.50;95.10
63313;DHT22;49442;45.640;13.812;2023-05-07T07:36:31;20.70;93.70
63313;DHT22;49442;45.640;13.812;2023-05-07T07:39:00;20.90;94.70
63313;DHT22;49442;45.640;13.812;2023-05-07T07:41:26;20.90;92.40
63313;DHT22;49442;45.640;13.812;2023-05-07T07:43:51;20.90;91.40
63313;DHT22;49442;45.640;13.812;2023-05-07T07:46:17;20.90;91.70
63313;DHT22;49442;45.640;13.812;2023-05-07T07:48:43;21.10;93.10
63313;DHT22;49442;45.640;13.812;2023-05-07T07:51:08;21.10;92.20
63313;DHT22;49442;45.640;13.812;2023-05-07T07:53:34;21.20;91.70
63313;DHT22;49442;45.640;13.812;2023-05-07T07:56:00;21.30;90.30
63313;DHT22;49442;45.640;13.812;2023-05-07T07:58:26;21.30;90.10
63313;DHT22;49442;45.640;13.812;2023-05-07T08:00:51;21.30;90.30
63313;DHT22;49442;45.640;13.812;2023-05-07T08:03:17;21.40;90.20
63313;DHT22;49442;45.640;13.812;2023-05-07T08:05:43;21.50;90.90
63313;DHT22;49442;45.640;13.812;2023-05-07T08:08:09;21.60;91.40
63313;DHT22;49442;45.640;13.812;2023-05-07T08:10:35;21.70;92.00
63313;DHT22;49442;45.640;13.812;2023-05-07T08:13:03;21.80;91.70
63313;DHT22;49442;45.640;13.812;2023-05-07T08:15:29;21.80;91.70
63313;DHT22;49442;45.640;13.812;2023-05-07T08:17:56;21.90;92.50
63313;DHT22;49442;45.640;13.812;2023-05-07T08:20:23;21.90;92.10
63313;DHT22;49442;45.640;13.812;2023-05-07T08:22:49;21.90;93.00
63313;DHT22;49442;45.640;13.812;2023-05-07T08:25:14;22.00;94.50
63313;DHT22;49442;45.640;13.812;2023-05-07T08:27:40;22.10;94.10
63313;DHT22;49442;45.640;13.812;2023-05-07T08:30:06;22.20;94.50
63313;DHT22;49442;45.640;13.812;2023-05-07T08:32:32;22.20;94.50
63313;DHT22;49442;45.640;13.812;2023-05-07T08:34:58;22.20;94.50
63313;DHT22;49442;45.640;13.812;2023-05-07T08:37:23;22.20;93.60
63313;DHT22;49442;45.640;13.812;2023-05-07T08:39:49;22.30;94.50
63313;DHT22;49442;45.640;13.812;2023-05-07T08:42:16;22.30;94.20
63313;DHT22;49442;45.640;13.812;2023-05-07T08:44:45;22.30;94.50
63313;DHT22;49442;45.640;13.812;2023-05-07T08:47:14;22.30;93.90
63313;DHT22;49442;45.640;13.812;2023-05-07T08:49:39;22.30;94.20
63313;DHT22;49442;45.640;13.812;2023-05-07T08:52:05;22.40;93.70
63313;DHT22;49442;45.640;13.812;2023-05-07T08:54:31;22.30;93.50
63313;DHT22;49442;45.640;13.812;2023-05-07T08:56:57;22.30;92.80
63313;DHT22;49442;45.640;13.812;2023-05-07T08:59:23;22.30;93.00
63313;DHT22;49442;45.640;13.812;2023-05-07T09:01:49;22.30;92.80
63313;DHT22;49442;45.640;13.812;2023-05-07T09:04:14;22.30;92.60
63313;DHT22;49442;45.640;13.812;2023-05-07T09:06:40;22.30;92.90
63313;DHT22;49442;45.640;13.812;2023-05-07T09:09:07;22.40;93.20
63313;DHT22;49442;45.640;13.812;2023-05-07T09:11:33;22.40;92.50
63313;DHT22;49442;45.640;13.812;2023-05-07T09:13:59;22.40;92.10
63313;DHT22;49442;45.640;13.812;2023-05-07T09:16:29;22.40;92.80
63313;DHT22;49442;45.640;13.812;2023-05-07T09:18:58;22.40;91.30
63313;DHT22;49442;45.640;13.812;2023-05-07T09:21:25;22.40;92.40
63313;DHT22;49442;45.640;13.812;2023-05-07T09:23:52;22.40;92.10
63313;DHT22;49442;45.640;13.812;2023-05-07T09:26:21;22.50;91.90
63313;DHT22;49442;45.640;13.812;2023-05-07T09:28:46;22.40;92.00
63313;DHT22;49442;45.640;13.812;2023-05-07T09:31:12;22.40;91.90
63313;DHT22;49442;45.640;13.812;2023-05-07T09:33:39;22.40;92.20
63313;DHT22;49442;45.640;13.812;2023-05-07T09:36:06;22.30;91.10
63313;DHT22;49442;45.640;13.812;2023-05-07T09:38:33;22.30;91.10
63313;DHT22;49442;45.640;13.812;2023-05-07T09:41:10;22.30;91.80
63313;DHT22;49442;45.640;13.812;2023-05-07T09:43:37;22.40;92.50
63313;DHT22;49442;45.640;13.812;2023-05-07T09:46:06;22.40;93.00
63313;DHT22;49442;45.640;13.812;2023-05-07T09:48:36;22.50;91.70
63313;DHT22;49442;45.640;13.812;2023-05-07T09:51:03;22.50;92.50
63313;DHT22;49442;45.640;13.812;2023-05-07T09:53:33;22.60;93.00
63313;DHT22;49442;45.640;13.812;2023-05-07T09:55:59;22.50;93.40
63313;DHT22;49442;45.640;13.812;2023-05-07T09:58:26;22.60;93.00
63313;DHT22;49442;45.640;13.812;2023-05-07T10:00:53;22.50;92.30
63313;DHT22;49442;45.640;13.812;2023-05-07T10:03:20;22.50;92.20
63313;DHT22;49442;45.640;13.812;2023-05-07T10:05:47;22.50;93.20
63313;DHT22;49442;45.640;13.812;2023-05-07T10:08:13;22.60;92.10
63313;DHT22;49442;45.640;13.812;2023-05-07T10:10:42;22.70;92.10
63313;DHT22;49442;45.640;13.812;2023-05-07T10:13:08;22.70;91.00
63313;DHT22;49442;45.640;13.812;2023-05-07T10:15:36;22.70;90.70
63313;DHT22;49442;45.640;13.812;2023-05-07T10:18:03;22.80;90.90
63313;DHT22;49442;45.640;13.812;2023-05-07T10:20:30;22.80;90.20
63313;DHT22;49442;45.640;13.812;2023-05-07T10:22:57;22.80;91.20
63313;DHT22;49442;45.640;13.812;2023-05-07T10:25:29;22.90;88.20
63313;DHT22;49442;45.640;13.812;2023-05-07T10:27:59;23.00;90.00
63313;DHT22;49442;45.640;13.812;2023-05-07T10:30:37;23.00;90.60
63313;DHT22;49442;45.640;13.812;2023-05-07T10:33:05;23.00;87.10
63313;DHT22;49442;45.640;13.812;2023-05-07T10:35:43;23.00;90.40
63313;DHT22;49442;45.640;13.812;2023-05-07T10:38:09;23.00;90.10
63313;DHT22;49442;45.640;13.812;2023-05-07T10:40:35;23.00;88.00
63313;DHT22;49442;45.640;13.812;2023-05-07T10:43:03;23.00;90.50
63313;DHT22;49442;45.640;13.812;2023-05-07T10:45:32;22.90;90.20
63313;DHT22;49442;45.640;13.812;2023-05-07T10:50:35;23.10;89.20
63313;DHT22;49442;45.640;13.812;2023-05-07T10:53:24;23.10;90.00
63313;DHT22;49442;45.640;13.812;2023-05-07T10:58:42;23.30;88.50
63313;DHT22;49442;45.640;13.812;2023-05-07T11:01:08;23.20;85.30
63313;DHT22;49442;45.640;13.812;2023-05-07T11:03:35;23.30;86.50
63313;DHT22;49442;45.640;13.812;2023-05-07T11:06:16;23.30;86.20
63313;DHT22;49442;45.640;13.812;2023-05-07T11:08:57;23.30;84.40
63313;DHT22;49442;45.640;13.812;2023-05-07T11:14:12;23.40;85.70
63313;DHT22;49442;45.640;13.812;2023-05-07T11:16:38;23.40;87.00
63313;DHT22;49442;45.640;13.812;2023-05-07T11:19:05;23.50;85.40
63313;DHT22;49442;45.640;13.812;2023-05-07T11:21:38;23.50;86.60
63313;DHT22;49442;45.640;13.812;2023-05-07T11:24:05;23.70;85.70
63313;DHT22;49442;45.640;13.812;2023-05-07T11:26:44;23.80;86.40
63313;DHT22;49442;45.640;13.812;2023-05-07T11:29:14;23.80;81.00
63313;DHT22;49442;45.640;13.812;2023-05-07T11:31:40;23.70;84.80
63313;DHT22;49442;45.640;13.812;2023-05-07T11:34:06;23.90;84.20
63313;DHT22;49442;45.640;13.812;2023-05-07T11:36:33;23.90;83.60
63313;DHT22;49442;45.640;13.812;2023-05-07T11:38:59;23.90;83.70
63313;DHT22;49442;45.640;13.812;2023-05-07T11:41:35;24.00;85.80
63313;DHT22;49442;45.640;13.812;2023-05-07T11:44:01;24.00;85.50
63313;DHT22;49442;45.640;13.812;2023-05-07T11:46:27;24.00;82.00
63313;DHT22;49442;45.640;13.812;2023-05-07T11:48:54;24.00;82.80
63313;DHT22;49442;45.640;13.812;2023-05-07T11:51:21;24.00;81.20
63313;DHT22;49442;45.640;13.812;2023-05-07T11:53:48;24.00;82.00
63313;DHT22;49442;45.640;13.812;2023-05-07T11:56:15;24.00;81.40
63313;DHT22;49442;45.640;13.812;2023-05-07T11:58:43;24.00;81.30
63313;DHT22;49442;45.640;13.812;2023-05-07T12:01:10;24.00;79.80
63313;DHT22;49442;45.640;13.812;2023-05-07T12:03:37;23.90;77.40
63313;DHT22;49442;45.640;13.812;2023-05-07T12:06:05;24.00;80.20
63313;DHT22;49442;45.640;13.812;2023-05-07T12:08:31;24.00;77.90
63313;DHT22;49442;45.640;13.812;2023-05-07T12:10:57;24.00;76.80
63313;DHT22;49442;45.640;13.812;2023-05-07T12:13:24;24.00;78.60
63313;DHT22;49442;45.640;13.812;2023-05-07T12:15:51;24.00;78.90
63313;DHT22;49442;45.640;13.812;2023-05-07T12:18:17;24.00;78.80
63313;DHT22;49442;45.640;13.812;2023-05-07T12:20:43;24.00;79.00
63313;DHT22;49442;45.640;13.812;2023-05-07T12:23:09;23.80;78.10
63313;DHT22;49442;45.640;13.812;2023-05-07T12:25:38;23.80;77.20
63313;DHT22;49442;45.640;13.812;2023-05-07T12:28:04;24.00;78.10
63313;DHT22;49442;45.640;13.812;2023-05-07T12:30:37;24.00;78.30
63313;DHT22;49442;45.640;13.812;2023-05-07T12:33:03;23.90;78.40
63313;DHT22;49442;45.640;13.812;2023-05-07T12:35:29;23.60;75.80
63313;DHT22;49442;45.640;13.812;2023-05-07T12:37:59;23.70;78.00
63313;DHT22;49442;45.640;13.812;2023-05-07T12:40:42;23.80;77.40
63313;DHT22;49442;45.640;13.812;2023-05-07T12:43:18;23.70;76.10
63313;DHT22;49442;45.640;13.812;2023-05-07T12:45:45;23.70;77.60
63313;DHT22;49442;45.640;13.812;2023-05-07T12:48:12;23.80;77.70
63313;DHT22;49442;45.640;13.812;2023-05-07T12:50:37;23.80;74.30
63313;DHT22;49442;45.640;13.812;2023-05-07T12:53:06;23.60;71.20
63313;DHT22;49442;45.640;13.812;2023-05-07T12:55:44;23.70;76.90
63313;DHT22;49442;45.640;13.812;2023-05-07T12:58:20;23.70;78.30
63313;DHT22;49442;45.640;13.812;2023-05-07T13:00:48;23.70;71.70
63313;DHT22;49442;45.640;13.812;2023-05-07T13:03:26;23.80;76.40
63313;DHT22;49442;45.640;13.812;2023-05-07T13:05:55;23.70;74.10
63313;DHT22;49442;45.640;13.812;2023-05-07T13:08:30;23.50;72.90
63313;DHT22;49442;45.640;13.812;2023-05-07T13:11:01;23.40;72.50
63313;DHT22;49442;45.640;13.812;2023-05-07T13:13:31;23.40;76.70
63313;DHT22;49442;45.640;13.812;2023-05-07T13:15:57;23.40;73.90
63313;DHT22;49442;45.640;13.812;2023-05-07T13:18:25;23.40;76.10
63313;DHT22;49442;45.640;13.812;2023-05-07T13:20:51;23.40;76.10
63313;DHT22;49442;45.640;13.812;2023-05-07T13:23:18;23.30;74.80
63313;DHT22;49442;45.640;13.812;2023-05-07T13:25:43;23.20;73.90
63313;DHT22;49442;45.640;13.812;2023-05-07T13:28:09;23.10;76.50
63313;DHT22;49442;45.640;13.812;2023-05-07T13:30:35;23.10;77.50
63313;DHT22;49442;45.640;13.812;2023-05-07T13:33:01;23.00;74.40
63313;DHT22;49442;45.640;13.812;2023-05-07T13:35:27;22.90;77.80
63313;DHT22;49442;45.640;13.812;2023-05-07T13:37:53;22.80;78.20
63313;DHT22;49442;45.640;13.812;2023-05-07T13:40:23;22.70;79.30
63313;DHT22;49442;45.640;13.812;2023-05-07T13:42:49;22.60;80.70
63313;DHT22;49442;45.640;13.812;2023-05-07T13:45:17;22.50;80.80
63313;DHT22;49442;45.640;13.812;2023-05-07T13:47:42;22.40;78.80
63313;DHT22;49442;45.640;13.812;2023-05-07T13:50:09;22.30;81.70
63313;DHT22;49442;45.640;13.812;2023-05-07T13:52:37;22.30;79.70
63313;DHT22;49442;45.640;13.812;2023-05-07T13:55:06;22.20;81.20
63313;DHT22;49442;45.640;13.812;2023-05-07T13:57:33;22.10;81.50
63313;DHT22;49442;45.640;13.812;2023-05-07T13:59:59;22.10;82.60
63313;DHT22;49442;45.640;13.812;2023-05-07T14:02:25;22.10;84.90
63313;DHT22;49442;45.640;13.812;2023-05-07T14:04:50;22.10;87.10
63313;DHT22;49442;45.640;13.812;2023-05-07T14:07:16;22.10;88.00
63313;DHT22;49442;45.640;13.812;2023-05-07T14:09:42;22.00;90.00
63313;DHT22;49442;45.640;13.812;2023-05-07T14:12:07;22.00;89.70
63313;DHT22;49442;45.640;13.812;2023-05-07T14:14:33;22.00;90.00
63313;DHT22;49442;45.640;13.812;2023-05-07T14:16:59;22.00;89.50
63313;DHT22;49442;45.640;13.812;2023-05-07T14:19:25;22.10;90.20
63313;DHT22;49442;45.640;13.812;2023-05-07T14:21:50;22.00;85.80
63313;DHT22;49442;45.640;13.812;2023-05-07T14:24:16;22.10;89.40
63313;DHT22;49442;45.640;13.812;2023-05-07T14:26:42;22.30;86.40
63313;DHT22;49442;45.640;13.812;2023-05-07T14:29:08;22.40;85.50
63313;DHT22;49442;45.640;13.812;2023-05-07T14:31:33;22.50;85.80
63313;DHT22;49442;45.640;13.812;2023-05-07T14:33:59;22.60;87.00
63313;DHT22;49442;45.640;13.812;2023-05-07T14:36:25;22.60;87.00
63313;DHT22;49442;45.640;13.812;2023-05-07T14:38:52;22.70;84.60
63313;DHT22;49442;45.640;13.812;2023-05-07T14:41:22;22.60;85.80
63313;DHT22;49442;45.640;13.812;2023-05-07T14:43:47;22.50;86.00
63313;DHT22;49442;45.640;13.812;2023-05-07T14:46:18;22.40;85.20
63313;DHT22;49442;45.640;13.812;2023-05-07T14:48:47;22.30;86.80
63313;DHT22;49442;45.640;13.812;2023-05-07T14:51:13;22.20;85.00
63313;DHT22;49442;45.640;13.812;2023-05-07T14:53:41;22.10;86.60
63313;DHT22;49442;45.640;13.812;2023-05-07T14:56:07;22.10;87.00
63313;DHT22;49442;45.640;13.812;2023-05-07T14:58:33;22.10;85.80
63313;DHT22;49442;45.640;13.812;2023-05-07T15:00:59;22.10;82.10
63313;DHT22;49442;45.640;13.812;2023-05-07T15:03:25;22.20;85.40
63313;DHT22;49442;45.640;13.812;2023-05-07T15:05:51;22.40;82.50
63313;DHT22;49442;45.640;13.812;2023-05-07T15:08:17;22.30;81.00
63313;DHT22;49442;45.640;13.812;2023-05-07T15:10:43;22.30;82.40
63313;DHT22;49442;45.640;13.812;2023-05-07T15:13:09;22.30;79.50
63313;DHT22;49442;45.640;13.812;2023-05-07T15:15:35;22.50;78.80
63313;DHT22;49442;45.640;13.812;2023-05-07T15:18:02;22.50;80.10
63313;DHT22;49442;45.640;13.812;2023-05-07T15:20:28;22.40;78.90